sensor_id;sensor_type;location;lat;lon;timestamp;P1;durP1;ratioP1;P2;durP2;ratioP2
14268;SDS011;7218;51.480;7.006;2023-04-06T00:01:45;12.05;;;7.70;;
14268;SDS011;7218;51.480;7.006;2023-04-06T00:04:12;11.18;;;7.90;;
14268;SDS011;7218;51.480;7.006;2023-04-06T00:06:38;10.85;;;7.60;;
14268;SDS011;7218;51.480;7.006;2023-04-06T00:09:05;10.25;;;8.05;;
14268;SDS011;7218;51.480;7.006;2023-04-06T00:11:33;13.10;;;8.00;;
14268;SDS011;7218;51.480;7.006;2023-04-06T00:13:59;11.25;;;7.90;;
14268;SDS011;7218;51.480;7.006;2023-04-06T00:16:26;11.05;;;8.48;;
14268;SDS011;7218;51.480;7.006;2023-04-06T00:18:52;12.38;;;8.70;;
14268;SDS011;7218;51.480;7.006;2023-04-06T00:21:19;10.95;;;7.40;;
14268;SDS011;7218;51.480;7.006;2023-04-06T00:23:45;11.90;;;8.27;;
14268;SDS011;7218;51.480;7.006;2023-04-06T00:26:12;12.75;;;8.52;;
14268;SDS011;7218;51.480;7.006;2023-04-06T00:28:39;10.48;;;7.55;;
14268;SDS011;7218;51.480;7.006;2023-04-06T00:31:06;11.40;;;8.57;;
14268;SDS011;7218;51.480;7.006;2023-04-06T00:33:32;10.95;;;8.57;;
14268;SDS011;7218;51.480;7.006;2023-04-06T00:35:59;12.00;;;8.50;;
14268;SDS011;7218;51.480;7.006;2023-04-06T00:38:25;9.82;;;7.75;;
14268;SDS011;7218;51.480;7.006;2023-04-06T00:40:52;12.20;;;8.13;;
14268;SDS011;7218;51.480;7.006;2023-04-06T00:43:19;9.75;;;7.63;;
14268;SDS011;7218;51.480;7.006;2023-04-06T00:45:46;11.43;;;7.85;;
14268;SDS011;7218;51.480;7.006;2023-04-06T00:48:13;12.77;;;7.80;;
14268;SDS011;7218;51.480;7.006;2023-04-06T00:50:39;12.05;;;7.63;;
14268;SDS011;7218;51.480;7.006;2023-04-06T00:53:06;12.38;;;7.93;;
14268;SDS011;7218;51.480;7.006;2023-04-06T00:55:33;11.52;;;7.70;;
14268;SDS011;7218;51.480;7.006;2023-04-06T00:58:00;10.65;;;7.43;;
14268;SDS011;7218;51.480;7.006;2023-04-06T01:00:28;10.48;;;7.57;;
14268;SDS011;7218;51.480;7.006;2023-04-06T01:02:57;12.70;;;8.20;;
14268;SDS011;7218;51.480;7.006;2023-04-06T01:05:23;10.77;;;8.30;;
14268;SDS011;7218;51.480;7.006;2023-04-06T01:07:50;10.48;;;7.97;;
14268;SDS011;7218;51.480;7.006;2023-04-06T01:10:22;10.90;;;8.32;;
14268;SDS011;7218;51.480;7.006;2023-04-06T01:12:50;13.23;;;7.80;;
14268;SDS011;7218;51.480;7.006;2023-04-06T01:15:16;11.20;;;7.60;;
14268;SDS011;7218;51.480;7.006;2023-04-06T01:17:43;10.93;;;7.80;;
14268;SDS011;7218;51.480;7.006;2023-04-06T01:20:11;10.75;;;7.75;;
14268;SDS011;7218;51.480;7.006;2023-04-06T01:22:39;11.45;;;7.97;;
14268;SDS011;7218;51.480;7.006;2023-04-06T01:25:06;13.27;;;7.70;;
14268;SDS011;7218;51.480;7.006;2023-04-06T01:27:34;11.02;;;7.93;;
14268;SDS011;7218;51.480;7.006;2023-04-06T01:30:00;12.15;;;7.97;;
14268;SDS011;7218;51.480;7.006;2023-04-06T01:32:27;11.85;;;7.95;;
14268;SDS011;7218;51.480;7.006;2023-04-06T01:34:53;12.52;;;7.82;;
14268;SDS011;7218;51.480;7.006;2023-04-06T01:37:20;12.57;;;7.95;;
14268;SDS011;7218;51.480;7.006;2023-04-06T01:39:48;13.27;;;8.20;;
14268;SDS011;7218;51.480;7.006;2023-04-06T01:42:14;10.50;;;7.78;;
14268;SDS011;7218;51.480;7.006;2023-04-06T01:44:41;11.60;;;8.02;;
14268;SDS011;7218;51.480;7.006;2023-04-06T01:47:07;13.02;;;7.88;;
14268;SDS011;7218;51.480;7.006;2023-04-06T01:49:34;12.13;;;8.10;;
14268;SDS011;7218;51.480;7.006;2023-04-06T01:52:01;13.48;;;8.23;;
14268;SDS011;7218;51.480;7.006;2023-04-06T01:54:27;11.40;;;8.38;;
14268;SDS011;7218;51.480;7.006;2023-04-06T01:56:55;11.77;;;7.88;;
14268;SDS011;7218;51.480;7.006;2023-04-06T01:59:22;10.63;;;8.13;;
14268;SDS011;7218;51.480;7.006;2023-04-06T02:01:48;11.85;;;8.02;;
14268;SDS011;7218;51.480;7.006;2023-04-06T02:04:15;12.18;;;8.32;;
14268;SDS011;7218;51.480;7.006;2023-04-06T02:06:41;12.43;;;8.15;;
14268;SDS011;7218;51.480;7.006;2023-04-06T02:09:07;15.23;;;8.57;;
14268;SDS011;7218;51.480;7.006;2023-04-06T02:11:34;10.80;;;7.95;;
14268;SDS011;7218;51.480;7.006;2023-04-06T02:14:02;13.65;;;8.27;;
14268;SDS011;7218;51.480;7.006;2023-04-06T02:16:29;11.00;;;8.15;;
14268;SDS011;7218;51.480;7.006;2023-04-06T02:18:56;14.55;;;8.88;;
14268;SDS011;7218;51.480;7.006;2023-04-06T02:21:22;12.13;;;8.70;;
14268;SDS011;7218;51.480;7.006;2023-04-06T02:23:49;14.35;;;8.70;;
14268;SDS011;7218;51.480;7.006;2023-04-06T02:26:15;13.23;;;8.32;;
14268;SDS011;7218;51.480;7.006;2023-04-06T02:28:42;12.30;;;9.38;;
14268;SDS011;7218;51.480;7.006;2023-04-06T02:31:10;14.90;;;8.75;;
14268;SDS011;7218;51.480;7.006;2023-04-06T02:33:36;11.50;;;8.52;;
14268;SDS011;7218;51.480;7.006;2023-04-06T02:36:03;12.90;;;9.38;;
14268;SDS011;7218;51.480;7.006;2023-04-06T02:38:30;11.73;;;8.82;;
14268;SDS011;7218;51.480;7.006;2023-04-06T02:40:56;14.40;;;8.75;;
14268;SDS011;7218;51.480;7.006;2023-04-06T02:43:23;13.05;;;8.57;;
14268;SDS011;7218;51.480;7.006;2023-04-06T02:45:49;12.23;;;8.82;;
14268;SDS011;7218;51.480;7.006;2023-04-06T02:48:17;13.23;;;8.40;;
14268;SDS011;7218;51.480;7.006;2023-04-06T02:50:44;12.68;;;8.63;;
14268;SDS011;7218;51.480;7.006;2023-04-06T02:53:10;17.23;;;9.10;;
14268;SDS011;7218;51.480;7.006;2023-04-06T02:55:37;13.85;;;9.40;;
14268;SDS011;7218;51.480;7.006;2023-04-06T02:58:04;13.40;;;9.45;;
14268;SDS011;7218;51.480;7.006;2023-04-06T03:00:30;14.80;;;9.55;;
14268;SDS011;7218;51.480;7.006;2023-04-06T03:02:57;16.00;;;9.25;;
14268;SDS011;7218;51.480;7.006;2023-04-06T03:05:24;12.55;;;9.05;;
14268;SDS011;7218;51.480;7.006;2023-04-06T03:07:51;12.63;;;9.05;;
14268;SDS011;7218;51.480;7.006;2023-04-06T03:10:17;14.25;;;9.30;;
14268;SDS011;7218;51.480;7.006;2023-04-06T03:12:44;14.10;;;9.68;;
14268;SDS011;7218;51.480;7.006;2023-04-06T03:15:10;12.82;;;9.93;;
14268;SDS011;7218;51.480;7.006;2023-04-06T03:17:37;13.63;;;9.55;;
14268;SDS011;7218;51.480;7.006;2023-04-06T03:20:04;12.93;;;8.90;;
14268;SDS011;7218;51.480;7.006;2023-04-06T03:22:32;13.55;;;9.60;;
14268;SDS011;7218;51.480;7.006;2023-04-06T03:24:59;15.70;;;9.80;;
14268;SDS011;7218;51.480;7.006;2023-04-06T03:27:25;15.48;;;9.93;;
14268;SDS011;7218;51.480;7.006;2023-04-06T03:29:52;12.02;;;9.05;;
14268;SDS011;7218;51.480;7.006;2023-04-06T03:32:18;15.57;;;9.88;;
14268;SDS011;7218;51.480;7.006;2023-04-06T03:34:45;15.52;;;10.30;;
14268;SDS011;7218;51.480;7.006;2023-04-06T03:37:11;14.07;;;9.35;;
14268;SDS011;7218;51.480;7.006;2023-04-06T03:39:39;14.30;;;9.38;;
14268;SDS011;7218;51.480;7.006;2023-04-06T03:42:05;13.98;;;9.77;;
14268;SDS011;7218;51.480;7.006;2023-04-06T03:44:32;14.75;;;10.07;;
14268;SDS011;7218;51.480;7.006;2023-04-06T03:46:58;13.65;;;9.63;;
14268;SDS011;7218;51.480;7.006;2023-04-06T03:49:25;14.38;;;9.80;;
14268;SDS011;7218;51.480;7.006;2023-04-06T03:51:52;14.45;;;9.70;;
14268;SDS011;7218;51.480;7.006;2023-04-06T03:54:19;14.07;;;10.02;;
14268;SDS011;7218;51.480;7.006;2023-04-06T03:56:47;13.75;;;9.93;;
14268;SDS011;7218;51.480;7.006;2023-04-06T03:59:13;16.05;;;9.35;;
14268;SDS011;7218;51.480;7.006;2023-04-06T04:01:40;15.55;;;10.02;;
14268;SDS011;7218;51.480;7.006;2023-04-06T04:04:07;14.45;;;10.05;;
14268;SDS011;7218;51.480;7.006;2023-04-06T04:06:33;13.98;;;9.63;;
14268;SDS011;7218;51.480;7.006;2023-04-06T04:09:01;16.25;;;9.80;;
14268;SDS011;7218;51.480;7.006;2023-04-06T04:11:28;15.93;;;9.60;;
14268;SDS011;7218;51.480;7.006;2023-04-06T04:13:55;16.27;;;10.30;;
14268;SDS011;7218;51.480;7.006;2023-04-06T04:16:22;17.67;;;10.05;;
14268;SDS011;7218;51.480;7.006;2023-04-06T04:18:48;14.77;;;9.73;;
14268;SDS011;7218;51.480;7.006;2023-04-06T04:21:15;17.13;;;10.40;;
14268;SDS011;7218;51.480;7.006;2023-04-06T04:23:41;18.08;;;10.35;;
14268;SDS011;7218;51.480;7.006;2023-04-06T04:26:08;14.25;;;9.38;;
14268;SDS011;7218;51.480;7.006;2023-04-06T04:28:35;12.60;;;9.35;;
14268;SDS011;7218;51.480;7.006;2023-04-06T04:31:03;13.57;;;9.38;;
14268;SDS011;7218;51.480;7.006;2023-04-06T04:33:29;13.15;;;9.43;;
14268;SDS011;7218;51.480;7.006;2023-04-06T04:35:56;11.90;;;8.95;;
14268;SDS011;7218;51.480;7.006;2023-04-06T04:38:22;13.57;;;9.82;;
14268;SDS011;7218;51.480;7.006;2023-04-06T04:40:49;13.90;;;9.25;;
14268;SDS011;7218;51.480;7.006;2023-04-06T04:43:15;14.77;;;9.50;;
14268;SDS011;7218;51.480;7.006;2023-04-06T04:45:42;16.02;;;9.77;;
14268;SDS011;7218;51.480;7.006;2023-04-06T04:48:10;18.63;;;10.30;;
14268;SDS011;7218;51.480;7.006;2023-04-06T04:50:36;12.90;;;8.98;;
14268;SDS011;7218;51.480;7.006;2023-04-06T04:53:03;14.73;;;9.68;;
14268;SDS011;7218;51.480;7.006;2023-04-06T04:55:31;15.57;;;9.52;;
14268;SDS011;7218;51.480;7.006;2023-04-06T04:57:57;15.45;;;9.48;;
14268;SDS011;7218;51.480;7.006;2023-04-06T05:00:24;14.57;;;9.25;;
14268;SDS011;7218;51.480;7.006;2023-04-06T05:02:51;14.18;;;9.00;;
14268;SDS011;7218;51.480;7.006;2023-04-06T05:05:19;13.40;;;9.55;;
14268;SDS011;7218;51.480;7.006;2023-04-06T05:07:45;14.57;;;9.27;;
14268;SDS011;7218;51.480;7.006;2023-04-06T05:10:12;16.52;;;9.10;;
14268;SDS011;7218;51.480;7.006;2023-04-06T05:12:40;14.82;;;9.55;;
14268;SDS011;7218;51.480;7.006;2023-04-06T05:15:07;14.65;;;9.38;;
14268;SDS011;7218;51.480;7.006;2023-04-06T05:17:35;14.23;;;9.40;;
14268;SDS011;7218;51.480;7.006;2023-04-06T05:20:01;14.10;;;9.73;;
14268;SDS011;7218;51.480;7.006;2023-04-06T05:22:29;14.05;;;9.88;;
14268;SDS011;7218;51.480;7.006;2023-04-06T05:24:56;13.75;;;9.20;;
14268;SDS011;7218;51.480;7.006;2023-04-06T05:27:22;13.68;;;9.57;;
14268;SDS011;7218;51.480;7.006;2023-04-06T05:29:49;16.85;;;10.10;;
14268;SDS011;7218;51.480;7.006;2023-04-06T05:32:15;14.73;;;10.00;;
14268;SDS011;7218;51.480;7.006;2023-04-06T05:34:46;14.77;;;9.68;;
14268;SDS011;7218;51.480;7.006;2023-04-06T05:37:14;15.43;;;10.60;;
14268;SDS011;7218;51.480;7.006;2023-04-06T05:39:42;19.10;;;9.65;;
14268;SDS011;7218;51.480;7.006;2023-04-06T05:42:09;16.90;;;10.45;;
14268;SDS011;7218;51.480;7.006;2023-04-06T05:44:36;15.35;;;9.73;;
14268;SDS011;7218;51.480;7.006;2023-04-06T05:47:03;16.02;;;9.95;;
14268;SDS011;7218;51.480;7.006;2023-04-06T05:49:30;16.08;;;10.48;;
14268;SDS011;7218;51.480;7.006;2023-04-06T05:51:56;13.55;;;9.95;;
14268;SDS011;7218;51.480;7.006;2023-04-06T05:54:23;18.55;;;10.63;;
14268;SDS011;7218;51.480;7.006;2023-04-06T05:56:51;16.73;;;10.60;;
14268;SDS011;7218;51.480;7.006;2023-04-06T05:59:18;13.82;;;9.50;;
14268;SDS011;7218;51.480;7.006;2023-04-06T06:01:45;13.70;;;10.15;;
14268;SDS011;7218;51.480;7.006;2023-04-06T06:04:12;17.67;;;9.93;;
14268;SDS011;7218;51.480;7.006;2023-04-06T06:06:38;16.10;;;10.25;;
14268;SDS011;7218;51.480;7.006;2023-04-06T06:09:05;16.70;;;10.55;;
14268;SDS011;7218;51.480;7.006;2023-04-06T06:11:32;22.50;;;11.65;;
14268;SDS011;7218;51.480;7.006;2023-04-06T06:14:00;16.77;;;10.52;;
14268;SDS011;7218;51.480;7.006;2023-04-06T06:16:27;16.92;;;10.52;;
14268;SDS011;7218;51.480;7.006;2023-04-06T06:18:53;17.77;;;10.65;;
14268;SDS011;7218;51.480;7.006;2023-04-06T06:21:20;16.67;;;9.98;;
14268;SDS011;7218;51.480;7.006;2023-04-06T06:23:46;19.63;;;10.52;;
14268;SDS011;7218;51.480;7.006;2023-04-06T06:26:14;17.13;;;10.38;;
14268;SDS011;7218;51.480;7.006;2023-04-06T06:28:40;14.93;;;9.90;;
14268;SDS011;7218;51.480;7.006;2023-04-06T06:31:08;17.70;;;9.90;;
14268;SDS011;7218;51.480;7.006;2023-04-06T06:33:35;16.63;;;10.30;;
14268;SDS011;7218;51.480;7.006;2023-04-06T06:36:02;13.23;;;9.30;;
14268;SDS011;7218;51.480;7.006;2023-04-06T06:38:28;15.38;;;8.75;;
14268;SDS011;7218;51.480;7.006;2023-04-06T06:40:55;13.52;;;8.90;;
14268;SDS011;7218;51.480;7.006;2023-04-06T06:43:21;13.30;;;7.70;;
14268;SDS011;7218;51.480;7.006;2023-04-06T06:45:48;12.25;;;7.30;;
14268;SDS011;7218;51.480;7.006;2023-04-06T06:48:17;9.82;;;7.30;;
14268;SDS011;7218;51.480;7.006;2023-04-06T06:50:43;9.88;;;6.95;;
14268;SDS011;7218;51.480;7.006;2023-04-06T06:53:09;9.88;;;6.53;;
14268;SDS011;7218;51.480;7.006;2023-04-06T06:55:37;8.73;;;6.43;;
14268;SDS011;7218;51.480;7.006;2023-04-06T06:58:03;7.97;;;6.45;;
14268;SDS011;7218;51.480;7.006;2023-04-06T07:00:31;10.50;;;6.75;;
14268;SDS011;7218;51.480;7.006;2023-04-06T07:02:57;12.25;;;6.88;;
14268;SDS011;7218;51.480;7.006;2023-04-06T07:05:25;8.60;;;6.53;;
14268;SDS011;7218;51.480;7.006;2023-04-06T07:07:52;11.00;;;6.50;;
14268;SDS011;7218;51.480;7.006;2023-04-06T07:10:18;10.88;;;6.90;;
14268;SDS011;7218;51.480;7.006;2023-04-06T07:12:45;11.77;;;6.70;;
14268;SDS011;7218;51.480;7.006;2023-04-06T07:15:12;9.75;;;6.82;;
14268;SDS011;7218;51.480;7.006;2023-04-06T07:17:38;9.68;;;6.85;;
14268;SDS011;7218;51.480;7.006;2023-04-06T07:20:06;9.20;;;6.32;;
14268;SDS011;7218;51.480;7.006;2023-04-06T07:22:34;8.50;;;6.07;;
14268;SDS011;7218;51.480;7.006;2023-04-06T07:25:01;9.32;;;6.22;;
14268;SDS011;7218;51.480;7.006;2023-04-06T07:27:27;11.02;;;6.20;;
14268;SDS011;7218;51.480;7.006;2023-04-06T07:29:54;8.77;;;6.20;;
14268;SDS011;7218;51.480;7.006;2023-04-06T07:32:20;11.65;;;6.63;;
14268;SDS011;7218;51.480;7.006;2023-04-06T07:34:47;13.25;;;6.57;;
14268;SDS011;7218;51.480;7.006;2023-04-06T07:37:13;9.77;;;6.53;;
14268;SDS011;7218;51.480;7.006;2023-04-06T07:39:41;8.70;;;6.57;;
14268;SDS011;7218;51.480;7.006;2023-04-06T07:42:08;9.00;;;6.68;;
14268;SDS011;7218;51.480;7.006;2023-04-06T07:44:35;9.27;;;6.72;;
14268;SDS011;7218;51.480;7.006;2023-04-06T07:47:01;9.65;;;6.63;;
14268;SDS011;7218;51.480;7.006;2023-04-06T07:49:27;11.38;;;7.05;;
14268;SDS011;7218;51.480;7.006;2023-04-06T07:51:54;9.68;;;7.25;;
14268;SDS011;7218;51.480;7.006;2023-04-06T07:54:20;8.50;;;6.65;;
14268;SDS011;7218;51.480;7.006;2023-04-06T07:56:48;10.82;;;7.18;;
14268;SDS011;7218;51.480;7.006;2023-04-06T07:59:15;9.13;;;7.05;;
14268;SDS011;7218;51.480;7.006;2023-04-06T08:01:41;9.88;;;7.13;;
14268;SDS011;7218;51.480;7.006;2023-04-06T08:04:08;11.95;;;6.95;;
14268;SDS011;7218;51.480;7.006;2023-04-06T08:06:34;9.40;;;6.78;;
14268;SDS011;7218;51.480;7.006;2023-04-06T08:09:01;11.50;;;7.60;;
14268;SDS011;7218;51.480;7.006;2023-04-06T08:11:28;12.88;;;7.45;;
14268;SDS011;7218;51.480;7.006;2023-04-06T08:13:56;12.68;;;7.32;;
14268;SDS011;7218;51.480;7.006;2023-04-06T08:16:25;12.40;;;7.68;;
14268;SDS011;7218;51.480;7.006;2023-04-06T08:18:52;13.43;;;7.82;;
14268;SDS011;7218;51.480;7.006;2023-04-06T08:21:18;12.52;;;7.90;;
14268;SDS011;7218;51.480;7.006;2023-04-06T08:23:45;9.32;;;7.35;;
14268;SDS011;7218;51.480;7.006;2023-04-06T08:26:12;10.65;;;7.50;;
14268;SDS011;7218;51.480;7.006;2023-04-06T08:28:38;11.55;;;7.88;;
14268;SDS011;7218;51.480;7.006;2023-04-06T08:31:06;12.27;;;7.47;;
14268;SDS011;7218;51.480;7.006;2023-04-06T08:33:33;10.23;;;7.53;;
14268;SDS011;7218;51.480;7.006;2023-04-06T08:36:07;11.05;;;7.65;;
14268;SDS011;7218;51.480;7.006;2023-04-06T08:38:35;13.15;;;7.90;;
14268;SDS011;7218;51.480;7.006;2023-04-06T08:41:06;9.60;;;7.90;;
14268;SDS011;7218;51.480;7.006;2023-04-06T08:43:34;11.48;;;7.45;;
14268;SDS011;7218;51.480;7.006;2023-04-06T08:46:09;10.55;;;7.55;;
14268;SDS011;7218;51.480;7.006;2023-04-06T08:48:36;11.27;;;7.88;;
14268;SDS011;7218;51.480;7.006;2023-04-06T08:51:04;9.43;;;7.57;;
14268;SDS011;7218;51.480;7.006;2023-04-06T08:53:31;13.40;;;8.07;;
14268;SDS011;7218;51.480;7.006;2023-04-06T08:55:58;12.18;;;8.13;;
14268;SDS011;7218;51.480;7.006;2023-04-06T08:58:26;9.85;;;8.00;;
14268;SDS011;7218;51.480;7.006;2023-04-06T09:00:55;9.93;;;8.00;;
14268;SDS011;7218;51.480;7.006;2023-04-06T09:03:24;10.48;;;8.32;;
14268;SDS011;7218;51.480;7.006;2023-04-06T09:05:52;11.45;;;8.52;;
14268;SDS011;7218;51.480;7.006;2023-04-06T09:08:18;13.32;;;9.13;;
14268;SDS011;7218;51.480;7.006;2023-04-06T09:10:48;12.50;;;8.55;;
14268;SDS011;7218;51.480;7.006;2023-04-06T09:13:17;12.50;;;9.27;;
14268;SDS011;7218;51.480;7.006;2023-04-06T09:15:43;14.52;;;9.10;;
14268;SDS011;7218;51.480;7.006;2023-04-06T09:18:10;12.77;;;9.30;;
14268;SDS011;7218;51.480;7.006;2023-04-06T09:20:38;14.60;;;9.15;;
14268;SDS011;7218;51.480;7.006;2023-04-06T09:23:05;15.05;;;9.15;;
14268;SDS011;7218;51.480;7.006;2023-04-06T09:25:31;12.48;;;9.20;;
14268;SDS011;7218;51.480;7.006;2023-04-06T09:27:58;12.55;;;9.15;;
14268;SDS011;7218;51.480;7.006;2023-04-06T09:30:26;13.00;;;9.60;;
14268;SDS011;7218;51.480;7.006;2023-04-06T09:32:53;13.32;;;9.50;;
14268;SDS011;7218;51.480;7.006;2023-04-06T09:35:20;12.70;;;9.35;;
14268;SDS011;7218;51.480;7.006;2023-04-06T09:37:49;12.23;;;9.73;;
14268;SDS011;7218;51.480;7.006;2023-04-06T09:40:17;11.75;;;9.55;;
14268;SDS011;7218;51.480;7.006;2023-04-06T09:42:44;12.20;;;9.52;;
14268;SDS011;7218;51.480;7.006;2023-04-06T09:45:12;18.95;;;11.00;;
14268;SDS011;7218;51.480;7.006;2023-04-06T09:47:40;14.90;;;10.75;;
14268;SDS011;7218;51.480;7.006;2023-04-06T09:50:11;17.10;;;10.13;;
14268;SDS011;7218;51.480;7.006;2023-04-06T09:52:39;15.40;;;10.45;;
14268;SDS011;7218;51.480;7.006;2023-04-06T09:55:10;13.63;;;10.32;;
14268;SDS011;7218;51.480;7.006;2023-04-06T09:57:37;13.82;;;9.90;;
14268;SDS011;7218;51.480;7.006;2023-04-06T10:00:12;15.25;;;9.73;;
14268;SDS011;7218;51.480;7.006;2023-04-06T10:02:45;13.68;;;10.15;;
14268;SDS011;7218;51.480;7.006;2023-04-06T10:05:18;13.70;;;10.23;;
14268;SDS011;7218;51.480;7.006;2023-04-06T10:07:48;16.48;;;10.20;;
14268;SDS011;7218;51.480;7.006;2023-04-06T10:10:19;13.60;;;9.60;;
14268;SDS011;7218;51.480;7.006;2023-04-06T10:12:46;14.15;;;10.02;;
14268;SDS011;7218;51.480;7.006;2023-04-06T10:15:14;14.63;;;10.20;;
14268;SDS011;7218;51.480;7.006;2023-04-06T10:17:41;16.30;;;10.68;;
14268;SDS011;7218;51.480;7.006;2023-04-06T10:20:08;13.93;;;10.25;;
14268;SDS011;7218;51.480;7.006;2023-04-06T10:22:40;13.68;;;10.23;;
14268;SDS011;7218;51.480;7.006;2023-04-06T10:25:15;13.43;;;10.35;;
14268;SDS011;7218;51.480;7.006;2023-04-06T10:27:43;15.75;;;10.80;;
14268;SDS011;7218;51.480;7.006;2023-04-06T10:30:10;15.60;;;10.30;;
14268;SDS011;7218;51.480;7.006;2023-04-06T10:32:37;15.57;;;10.30;;
14268;SDS011;7218;51.480;7.006;2023-04-06T10:35:05;13.98;;;9.73;;
14268;SDS011;7218;51.480;7.006;2023-04-06T10:37:45;15.32;;;10.80;;
14268;SDS011;7218;51.480;7.006;2023-04-06T10:40:19;15.07;;;10.75;;
14268;SDS011;7218;51.480;7.006;2023-04-06T10:42:49;13.30;;;10.15;;
14268;SDS011;7218;51.480;7.006;2023-04-06T10:45:19;19.88;;;11.32;;
14268;SDS011;7218;51.480;7.006;2023-04-06T10:47:47;13.35;;;9.88;;
14268;SDS011;7218;51.480;7.006;2023-04-06T10:50:14;14.82;;;9.98;;
14268;SDS011;7218;51.480;7.006;2023-04-06T10:52:41;17.05;;;10.88;;
14268;SDS011;7218;51.480;7.006;2023-04-06T10:55:09;18.45;;;11.38;;
14268;SDS011;7218;51.480;7.006;2023-04-06T10:57:37;14.88;;;11.30;;
14268;SDS011;7218;51.480;7.006;2023-04-06T11:00:06;15.63;;;11.73;;
14268;SDS011;7218;51.480;7.006;2023-04-06T11:02:34;15.95;;;11.93;;
14268;SDS011;7218;51.480;7.006;2023-04-06T11:05:01;14.15;;;10.70;;
14268;SDS011;7218;51.480;7.006;2023-04-06T11:07:28;17.27;;;11.88;;
14268;SDS011;7218;51.480;7.006;2023-04-06T11:09:55;16.50;;;11.82;;
14268;SDS011;7218;51.480;7.006;2023-04-06T11:12:22;17.38;;;12.07;;
14268;SDS011;7218;51.480;7.006;2023-04-06T11:14:54;15.32;;;11.63;;
14268;SDS011;7218;51.480;7.006;2023-04-06T11:17:27;16.70;;;11.63;;
14268;SDS011;7218;51.480;7.006;2023-04-06T11:19:54;17.00;;;11.65;;
14268;SDS011;7218;51.480;7.006;2023-04-06T11:22:20;14.90;;;11.10;;
14268;SDS011;7218;51.480;7.006;2023-04-06T11:24:47;14.52;;;11.10;;
14268;SDS011;7218;51.480;7.006;2023-04-06T11:27:14;15.25;;;11.05;;
14268;SDS011;7218;51.480;7.006;2023-04-06T11:29:42;14.32;;;10.57;;
14268;SDS011;7218;51.480;7.006;2023-04-06T11:32:11;16.90;;;10.98;;
14268;SDS011;7218;51.480;7.006;2023-04-06T11:34:46;16.98;;;10.85;;
14268;SDS011;7218;51.480;7.006;2023-04-06T11:37:13;17.15;;;10.48;;
14268;SDS011;7218;51.480;7.006;2023-04-06T11:39:42;14.57;;;10.40;;
14268;SDS011;7218;51.480;7.006;2023-04-06T11:42:12;15.38;;;10.05;;
14268;SDS011;7218;51.480;7.006;2023-04-06T11:44:39;14.25;;;10.15;;
14268;SDS011;7218;51.480;7.006;2023-04-06T11:47:11;14.40;;;10.57;;
14268;SDS011;7218;51.480;7.006;2023-04-06T11:49:38;15.25;;;10.50;;
14268;SDS011;7218;51.480;7.006;2023-04-06T11:52:15;16.20;;;11.07;;
14268;SDS011;7218;51.480;7.006;2023-04-06T11:54:43;16.40;;;11.10;;
14268;SDS011;7218;51.480;7.006;2023-04-06T11:57:10;16.02;;;10.65;;
14268;SDS011;7218;51.480;7.006;2023-04-06T11:59:36;16.50;;;11.20;;
14268;SDS011;7218;51.480;7.006;2023-04-06T12:02:03;16.42;;;10.88;;
14268;SDS011;7218;51.480;7.006;2023-04-06T12:04:31;17.85;;;11.38;;
14268;SDS011;7218;51.480;7.006;2023-04-06T12:06:57;15.65;;;10.80;;
14268;SDS011;7218;51.480;7.006;2023-04-06T12:09:26;17.23;;;10.65;;
14268;SDS011;7218;51.480;7.006;2023-04-06T12:11:52;14.60;;;10.75;;
14268;SDS011;7218;51.480;7.006;2023-04-06T12:14:19;17.35;;;11.50;;
14268;SDS011;7218;51.480;7.006;2023-04-06T12:16:46;18.92;;;11.50;;
14268;SDS011;7218;51.480;7.006;2023-04-06T12:19:13;16.48;;;11.07;;
14268;SDS011;7218;51.480;7.006;2023-04-06T12:21:40;17.45;;;11.43;;
14268;SDS011;7218;51.480;7.006;2023-04-06T12:24:07;18.40;;;11.45;;
14268;SDS011;7218;51.480;7.006;2023-04-06T12:26:35;16.50;;;11.18;;
14268;SDS011;7218;51.480;7.006;2023-04-06T12:29:02;17.30;;;10.90;;
14268;SDS011;7218;51.480;7.006;2023-04-06T12:31:32;15.45;;;11.35;;
14268;SDS011;7218;51.480;7.006;2023-04-06T12:33:59;17.38;;;11.95;;
14268;SDS011;7218;51.480;7.006;2023-04-06T12:36:26;17.42;;;11.43;;
14268;SDS011;7218;51.480;7.006;2023-04-06T12:38:52;17.23;;;11.80;;
14268;SDS011;7218;51.480;7.006;2023-04-06T12:41:19;16.50;;;11.77;;
14268;SDS011;7218;51.480;7.006;2023-04-06T12:43:48;15.95;;;11.82;;
14268;SDS011;7218;51.480;7.006;2023-04-06T12:46:15;20.02;;;11.88;;
14268;SDS011;7218;51.480;7.006;2023-04-06T12:48:42;15.88;;;11.30;;
14268;SDS011;7218;51.480;7.006;2023-04-06T12:51:08;19.15;;;11.63;;
14268;SDS011;7218;51.480;7.006;2023-04-06T12:53:35;18.20;;;11.65;;
14268;SDS011;7218;51.480;7.006;2023-04-06T12:56:02;16.70;;;11.60;;
14268;SDS011;7218;51.480;7.006;2023-04-06T12:58:37;15.35;;;11.10;;
14268;SDS011;7218;51.480;7.006;2023-04-06T13:01:07;15.48;;;11.55;;
14268;SDS011;7218;51.480;7.006;2023-04-06T13:03:34;17.10;;;10.70;;
14268;SDS011;7218;51.480;7.006;2023-04-06T13:06:01;17.17;;;11.27;;
14268;SDS011;7218;51.480;7.006;2023-04-06T13:08:28;15.52;;;10.90;;
14268;SDS011;7218;51.480;7.006;2023-04-06T13:10:54;15.35;;;10.80;;
14268;SDS011;7218;51.480;7.006;2023-04-06T13:13:22;14.77;;;10.52;;
14268;SDS011;7218;51.480;7.006;2023-04-06T13:15:49;14.85;;;10.10;;
14268;SDS011;7218;51.480;7.006;2023-04-06T13:18:17;15.55;;;10.82;;
14268;SDS011;7218;51.480;7.006;2023-04-06T13:20:46;18.02;;;10.90;;
14268;SDS011;7218;51.480;7.006;2023-04-06T13:23:13;14.13;;;10.13;;
14268;SDS011;7218;51.480;7.006;2023-04-06T13:25:39;17.00;;;10.13;;
14268;SDS011;7218;51.480;7.006;2023-04-06T13:28:06;15.57;;;9.55;;
14268;SDS011;7218;51.480;7.006;2023-04-06T13:30:33;14.27;;;9.77;;
14268;SDS011;7218;51.480;7.006;2023-04-06T13:33:00;16.15;;;9.88;;
14268;SDS011;7218;51.480;7.006;2023-04-06T13:35:28;15.75;;;9.50;;
14268;SDS011;7218;51.480;7.006;2023-04-06T13:37:55;16.42;;;9.73;;
14268;SDS011;7218;51.480;7.006;2023-04-06T13:40:21;13.38;;;9.20;;
14268;SDS011;7218;51.480;7.006;2023-04-06T13:42:48;13.13;;;9.15;;
14268;SDS011;7218;51.480;7.006;2023-04-06T13:45:15;14.15;;;9.65;;
14268;SDS011;7218;51.480;7.006;2023-04-06T13:47:42;11.85;;;9.23;;
14268;SDS011;7218;51.480;7.006;2023-04-06T13:50:08;11.32;;;9.05;;
14268;SDS011;7218;51.480;7.006;2023-04-06T13:52:38;12.55;;;9.10;;
14268;SDS011;7218;51.480;7.006;2023-04-06T13:55:05;13.70;;;9.48;;
14268;SDS011;7218;51.480;7.006;2023-04-06T13:57:32;12.45;;;9.00;;
14268;SDS011;7218;51.480;7.006;2023-04-06T13:59:59;14.20;;;9.43;;
14268;SDS011;7218;51.480;7.006;2023-04-06T14:02:25;16.17;;;8.82;;
14268;SDS011;7218;51.480;7.006;2023-04-06T14:04:52;12.60;;;8.85;;
14268;SDS011;7218;51.480;7.006;2023-04-06T14:07:20;12.38;;;8.93;;
14268;SDS011;7218;51.480;7.006;2023-04-06T14:09:48;11.52;;;8.60;;
14268;SDS011;7218;51.480;7.006;2023-04-06T14:12:15;10.75;;;8.48;;
14268;SDS011;7218;51.480;7.006;2023-04-06T14:14:41;10.88;;;8.00;;
14268;SDS011;7218;51.480;7.006;2023-04-06T14:17:08;11.45;;;8.00;;
14268;SDS011;7218;51.480;7.006;2023-04-06T14:19:34;13.85;;;9.77;;
14268;SDS011;7218;51.480;7.006;2023-04-06T14:22:01;12.43;;;8.27;;
14268;SDS011;7218;51.480;7.006;2023-04-06T14:24:27;9.63;;;7.18;;
14268;SDS011;7218;51.480;7.006;2023-04-06T14:26:55;10.70;;;7.15;;
14268;SDS011;7218;51.480;7.006;2023-04-06T14:29:22;9.65;;;7.78;;
14268;SDS011;7218;51.480;7.006;2023-04-06T14:31:49;10.80;;;7.75;;
14268;SDS011;7218;51.480;7.006;2023-04-06T14:34:16;12.88;;;8.20;;
14268;SDS011;7218;51.480;7.006;2023-04-06T14:36:42;11.23;;;7.82;;
14268;SDS011;7218;51.480;7.006;2023-04-06T14:39:10;11.00;;;7.90;;
14268;SDS011;7218;51.480;7.006;2023-04-06T14:41:37;9.23;;;7.07;;
14268;SDS011;7218;51.480;7.006;2023-04-06T14:44:04;10.98;;;7.53;;
14268;SDS011;7218;51.480;7.006;2023-04-06T14:46:31;9.70;;;7.88;;